sensor_id;sensor_type;location;lat;lon;timestamp;temperature;humidity
70534;SHT31;58088;51.186;17.130;2022-09-27T00:01:02;11.67;81.35
70534;SHT31;58088;51.186;17.130;2022-09-27T00:03:32;11.63;81.22
70534;SHT31;58088;51.186;17.130;2022-09-27T00:06:02;11.61;81.33
70534;SHT31;58088;51.186;17.130;2022-09-27T00:08:33;11.62;81.40
70534;SHT31;58088;51.186;17.130;2022-09-27T00:11:05;11.62;81.45
70534;SHT31;58088;51.186;17.130;2022-09-27T00:13:38;11.64;81.50
70534;SHT31;58088;51.186;17.130;2022-09-27T00:16:04;11.65;81.54
70534;SHT31;58088;51.186;17.130;2022-09-27T00:18:31;11.66;81.53
70534;SHT31;58088;51.186;17.130;2022-09-27T00:21:08;11.67;81.51
70534;SHT31;58088;51.186;17.130;2022-09-27T00:23:38;11.68;81.51
70534;SHT31;58088;51.186;17.130;2022-09-27T00:26:05;11.69;81.50
70534;SHT31;58088;51.186;17.130;2022-09-27T00:28:35;11.70;81.44
70534;SHT31;58088;51.186;17.130;2022-09-27T00:31:02;11.69;81.49
70534;SHT31;58088;51.186;17.130;2022-09-27T00:33:28;11.69;81.51
70534;SHT31;58088;51.186;17.130;2022-09-27T00:36:01;11.67;81.63
70534;SHT31;58088;51.186;17.130;2022-09-27T00:38:30;11.66;81.68
70534;SHT31;58088;51.186;17.130;2022-09-27T00:40:56;11.64;81.71
70534;SHT31;58088;51.186;17.130;2022-09-27T00:43:22;11.62;81.76
70534;SHT31;58088;51.186;17.130;2022-09-27T00:45:50;11.61;81.81
70534;SHT31;58088;51.186;17.130;2022-09-27T00:48:23;11.59;81.83
70534;SHT31;58088;51.186;17.130;2022-09-27T00:51:12;11.59;81.82
70534;SHT31;58088;51.186;17.130;2022-09-27T00:53:43;11.59;81.77
70534;SHT31;58088;51.186;17.130;2022-09-27T00:56:17;11.58;81.80
70534;SHT31;58088;51.186;17.130;2022-09-27T00:58:53;11.60;81.64
70534;SHT31;58088;51.186;17.130;2022-09-27T01:01:27;11.53;81.33
70534;SHT31;58088;51.186;17.130;2022-09-27T01:04:00;11.47;81.24
70534;SHT31;58088;51.186;17.130;2022-09-27T01:06:33;11.47;81.30
70534;SHT31;58088;51.186;17.130;2022-09-27T01:09:03;11.51;81.30
70534;SHT31;58088;51.186;17.130;2022-09-27T01:11:41;11.52;81.20
70534;SHT31;58088;51.186;17.130;2022-09-27T01:17:58;11.37;81.30
70534;SHT31;58088;51.186;17.130;2022-09-27T01:26:51;11.43;81.04
70534;SHT31;58088;51.186;17.130;2022-09-27T01:35:33;11.31;80.90
70534;SHT31;58088;51.186;17.130;2022-09-27T01:38:16;11.29;80.95
70534;SHT31;58088;51.186;17.130;2022-09-27T01:44:44;11.27;80.65
70534;SHT31;58088;51.186;17.130;2022-09-27T01:47:31;11.23;80.52
70534;SHT31;58088;51.186;17.130;2022-09-27T01:50:31;11.23;80.64
70534;SHT31;58088;51.186;17.130;2022-09-27T01:53:12;11.23;80.69
70534;SHT31;58088;51.186;17.130;2022-09-27T01:56:07;11.23;80.72
70534;SHT31;58088;51.186;17.130;2022-09-27T01:58:57;11.21;80.81
70534;SHT31;58088;51.186;17.130;2022-09-27T02:01:29;11.19;80.94
70534;SHT31;58088;51.186;17.130;2022-09-27T02:04:01;11.15;81.10
70534;SHT31;58088;51.186;17.130;2022-09-27T02:07:08;11.12;81.33
70534;SHT31;58088;51.186;17.130;2022-09-27T02:09:46;11.09;81.47
70534;SHT31;58088;51.186;17.130;2022-09-27T02:12:25;11.06;81.65
70534;SHT31;58088;51.186;17.130;2022-09-27T02:15:04;11.03;81.79
70534;SHT31;58088;51.186;17.130;2022-09-27T02:17:44;11.01;81.90
70534;SHT31;58088;51.186;17.130;2022-09-27T02:25:54;10.96;82.05
70534;SHT31;58088;51.186;17.130;2022-09-27T02:31:08;10.91;82.23
70534;SHT31;58088;51.186;17.130;2022-09-27T02:33:46;10.89;82.23
70534;SHT31;58088;51.186;17.130;2022-09-27T02:36:19;10.87;82.30
70534;SHT31;58088;51.186;17.130;2022-09-27T02:38:46;10.84;82.42
70534;SHT31;58088;51.186;17.130;2022-09-27T02:41:14;10.83;82.50
70534;SHT31;58088;51.186;17.130;2022-09-27T02:43:44;10.83;82.52
70534;SHT31;58088;51.186;17.130;2022-09-27T02:46:28;10.81;82.59
70534;SHT31;58088;51.186;17.130;2022-09-27T02:49:08;10.76;82.68
70534;SHT31;58088;51.186;17.130;2022-09-27T02:55:06;10.80;82.83
70534;SHT31;58088;51.186;17.130;2022-09-27T03:02:10;10.83;82.70
70534;SHT31;58088;51.186;17.130;2022-09-27T03:05:13;10.87;82.63
70534;SHT31;58088;51.186;17.130;2022-09-27T03:07:46;10.89;82.60
70534;SHT31;58088;51.186;17.130;2022-09-27T03:10:18;10.89;82.51
70534;SHT31;58088;51.186;17.130;2022-09-27T03:12:48;10.88;82.50
70534;SHT31;58088;51.186;17.130;2022-09-27T03:15:15;10.87;82.47
70534;SHT31;58088;51.186;17.130;2022-09-27T03:18:10;10.85;82.50
70534;SHT31;58088;51.186;17.130;2022-09-27T03:20:39;10.83;82.54
70534;SHT31;58088;51.186;17.130;2022-09-27T03:23:18;10.82;82.52
70534;SHT31;58088;51.186;17.130;2022-09-27T03:25:45;10.81;82.50
70534;SHT31;58088;51.186;17.130;2022-09-27T03:28:12;10.79;82.51
70534;SHT31;58088;51.186;17.130;2022-09-27T03:30:40;10.77;82.50
70534;SHT31;58088;51.186;17.130;2022-09-27T03:33:07;10.75;82.48
70534;SHT31;58088;51.186;17.130;2022-09-27T03:35:43;10.73;82.53
70534;SHT31;58088;51.186;17.130;2022-09-27T03:38:09;10.68;82.56
70534;SHT31;58088;51.186;17.130;2022-09-27T03:40:35;10.65;82.61
70534;SHT31;58088;51.186;17.130;2022-09-27T03:43:02;10.63;82.66
70534;SHT31;58088;51.186;17.130;2022-09-27T03:45:29;10.62;82.60
70534;SHT31;58088;51.186;17.130;2022-09-27T03:47:56;10.61;82.57
70534;SHT31;58088;51.186;17.130;2022-09-27T03:50:22;10.58;82.54
70534;SHT31;58088;51.186;17.130;2022-09-27T03:52:48;10.56;82.63
70534;SHT31;58088;51.186;17.130;2022-09-27T03:55:14;10.53;82.59
70534;SHT31;58088;51.186;17.130;2022-09-27T03:57:44;10.52;82.67
70534;SHT31;58088;51.186;17.130;2022-09-27T04:00:15;10.49;82.72
70534;SHT31;58088;51.186;17.130;2022-09-27T04:02:42;10.43;82.78
70534;SHT31;58088;51.186;17.130;2022-09-27T04:05:22;10.44;82.81
70534;SHT31;58088;51.186;17.130;2022-09-27T04:07:56;10.49;82.75
70534;SHT31;58088;51.186;17.130;2022-09-27T04:10:22;10.52;82.70
70534;SHT31;58088;51.186;17.130;2022-09-27T04:12:49;10.53;82.69
70534;SHT31;58088;51.186;17.130;2022-09-27T04:15:17;10.55;82.66
70534;SHT31;58088;51.186;17.130;2022-09-27T04:17:49;10.59;82.61
70534;SHT31;58088;51.186;17.130;2022-09-27T04:20:34;10.64;82.55
70534;SHT31;58088;51.186;17.130;2022-09-27T04:23:06;10.61;82.46
70534;SHT31;58088;51.186;17.130;2022-09-27T04:25:34;10.62;82.40
70534;SHT31;58088;51.186;17.130;2022-09-27T04:28:06;10.63;82.34
70534;SHT31;58088;51.186;17.130;2022-09-27T04:30:33;10.64;82.30
70534;SHT31;58088;51.186;17.130;2022-09-27T04:33:20;10.65;82.33
70534;SHT31;58088;51.186;17.130;2022-09-27T04:36:11;10.66;82.24
70534;SHT31;58088;51.186;17.130;2022-09-27T04:39:07;10.68;82.20
70534;SHT31;58088;51.186;17.130;2022-09-27T04:41:36;10.71;82.20
70534;SHT31;58088;51.186;17.130;2022-09-27T04:44:02;10.72;82.11
70534;SHT31;58088;51.186;17.130;2022-09-27T04:46:29;10.71;82.10
70534;SHT31;58088;51.186;17.130;2022-09-27T04:48:58;10.72;82.13
70534;SHT31;58088;51.186;17.130;2022-09-27T04:51:25;10.73;82.20
70534;SHT31;58088;51.186;17.130;2022-09-27T04:53:52;10.76;82.05
70534;SHT31;58088;51.186;17.130;2022-09-27T04:56:22;10.77;81.99
70534;SHT31;58088;51.186;17.130;2022-09-27T04:58:48;10.78;81.91
70534;SHT31;58088;51.186;17.130;2022-09-27T05:01:14;10.77;81.86
70534;SHT31;58088;51.186;17.130;2022-09-27T05:04:01;10.79;81.82
70534;SHT31;58088;51.186;17.130;2022-09-27T05:06:27;10.87;81.81
70534;SHT31;58088;51.186;17.130;2022-09-27T05:08:55;11.00;81.77
70534;SHT31;58088;51.186;17.130;2022-09-27T05:11:47;11.09;81.59
70534;SHT31;58088;51.186;17.130;2022-09-27T05:14:33;11.09;81.49
70534;SHT31;58088;51.186;17.130;2022-09-27T05:17:09;11.10;81.53
70534;SHT31;58088;51.186;17.130;2022-09-27T05:20:14;11.11;81.45
70534;SHT31;58088;51.186;17.130;2022-09-27T05:22:51;11.10;81.31
70534;SHT31;58088;51.186;17.130;2022-09-27T05:25:17;11.06;81.22
70534;SHT31;58088;51.186;17.130;2022-09-27T05:27:43;11.04;81.30
70534;SHT31;58088;51.186;17.130;2022-09-27T05:30:10;11.05;81.29
70534;SHT31;58088;51.186;17.130;2022-09-27T05:32:45;11.05;81.28
70534;SHT31;58088;51.186;17.130;2022-09-27T05:35:32;11.04;81.22
70534;SHT31;58088;51.186;17.130;2022-09-27T05:38:00;11.00;81.26
70534;SHT31;58088;51.186;17.130;2022-09-27T05:40:29;10.98;81.29
70534;SHT31;58088;51.186;17.130;2022-09-27T05:42:55;10.96;81.35
70534;SHT31;58088;51.186;17.130;2022-09-27T05:45:22;10.95;81.38
70534;SHT31;58088;51.186;17.130;2022-09-27T05:47:53;10.94;81.39
70534;SHT31;58088;51.186;17.130;2022-09-27T05:50:20;10.97;81.43
70534;SHT31;58088;51.186;17.130;2022-09-27T05:52:48;11.01;81.46
70534;SHT31;58088;51.186;17.130;2022-09-27T05:55:14;11.05;81.40
70534;SHT31;58088;51.186;17.130;2022-09-27T05:57:41;11.06;81.41
70534;SHT31;58088;51.186;17.130;2022-09-27T06:00:08;11.08;81.50
70534;SHT31;58088;51.186;17.130;2022-09-27T06:02:38;11.10;81.58
70534;SHT31;58088;51.186;17.130;2022-09-27T06:05:13;11.13;81.60
70534;SHT31;58088;51.186;17.130;2022-09-27T06:07:39;11.16;81.53
70534;SHT31;58088;51.186;17.130;2022-09-27T06:10:12;11.20;81.50
70534;SHT31;58088;51.186;17.130;2022-09-27T06:12:38;11.22;81.50
70534;SHT31;58088;51.186;17.130;2022-09-27T06:15:14;11.25;81.49
70534;SHT31;58088;51.186;17.130;2022-09-27T06:17:43;11.28;81.50
70534;SHT31;58088;51.186;17.130;2022-09-27T06:20:14;11.30;81.64
70534;SHT31;58088;51.186;17.130;2022-09-27T06:23:02;11.36;81.69
70534;SHT31;58088;51.186;17.130;2022-09-27T06:25:49;11.36;81.69
70534;SHT31;58088;51.186;17.130;2022-09-27T06:28:37;11.37;81.70
70534;SHT31;58088;51.186;17.130;2022-09-27T06:31:05;11.41;81.72
70534;SHT31;58088;51.186;17.130;2022-09-27T06:33:49;11.44;81.64
70534;SHT31;58088;51.186;17.130;2022-09-27T06:36:20;11.49;81.73
70534;SHT31;58088;51.186;17.130;2022-09-27T06:38:49;11.55;81.87
70534;SHT31;58088;51.186;17.130;2022-09-27T06:41:21;11.58;81.83
70534;SHT31;58088;51.186;17.130;2022-09-27T06:44:03;11.59;81.84
70534;SHT31;58088;51.186;17.130;2022-09-27T06:46:51;11.56;81.80
70534;SHT31;58088;51.186;17.130;2022-09-27T06:49:30;11.52;81.77
70534;SHT31;58088;51.186;17.130;2022-09-27T06:52:01;11.52;81.88
70534;SHT31;58088;51.186;17.130;2022-09-27T06:54:31;11.55;81.93
70534;SHT31;58088;51.186;17.130;2022-09-27T06:56:58;11.57;81.95
70534;SHT31;58088;51.186;17.130;2022-09-27T06:59:24;11.58;81.95
70534;SHT31;58088;51.186;17.130;2022-09-27T07:02:28;11.60;82.05
70534;SHT31;58088;51.186;17.130;2022-09-27T07:05:29;11.64;82.15
70534;SHT31;58088;51.186;17.130;2022-09-27T07:08:25;11.70;82.13
70534;SHT31;58088;51.186;17.130;2022-09-27T07:11:03;11.74;82.19
70534;SHT31;58088;51.186;17.130;2022-09-27T07:13:32;11.81;82.19
70534;SHT31;58088;51.186;17.130;2022-09-27T07:16:01;11.84;82.14
70534;SHT31;58088;51.186;17.130;2022-09-27T07:18:28;11.88;82.20
70534;SHT31;58088;51.186;17.130;2022-09-27T07:20:55;11.91;82.16
70534;SHT31;58088;51.186;17.130;2022-09-27T07:23:21;11.91;82.07
70534;SHT31;58088;51.186;17.130;2022-09-27T07:25:48;11.92;82.02
70534;SHT31;58088;51.186;17.130;2022-09-27T07:28:17;11.92;82.03
70534;SHT31;58088;51.186;17.130;2022-09-27T07:30:46;11.93;82.07
70534;SHT31;58088;51.186;17.130;2022-09-27T07:33:12;11.95;82.14
70534;SHT31;58088;51.186;17.130;2022-09-27T07:35:39;11.96;82.21
70534;SHT31;58088;51.186;17.130;2022-09-27T07:38:08;11.98;82.20
70534;SHT31;58088;51.186;17.130;2022-09-27T07:40:41;12.02;82.18
70534;SHT31;58088;51.186;17.130;2022-09-27T07:43:08;12.05;82.21
70534;SHT31;58088;51.186;17.130;2022-09-27T07:45:34;12.08;82.22
70534;SHT31;58088;51.186;17.130;2022-09-27T07:48:20;12.12;82.16
70534;SHT31;58088;51.186;17.130;2022-09-27T07:51:18;12.13;82.06
70534;SHT31;58088;51.186;17.130;2022-09-27T07:53:50;12.15;82.12
70534;SHT31;58088;51.186;17.130;2022-09-27T07:56:46;12.17;82.18
70534;SHT31;58088;51.186;17.130;2022-09-27T07:59:14;12.22;82.21
70534;SHT31;58088;51.186;17.130;2022-09-27T08:01:40;12.25;82.19
70534;SHT31;58088;51.186;17.130;2022-09-27T08:04:06;12.26;82.20
70534;SHT31;58088;51.186;17.130;2022-09-27T08:06:33;12.31;82.20
70534;SHT31;58088;51.186;17.130;2022-09-27T08:09:00;12.34;82.10
70534;SHT31;58088;51.186;17.130;2022-09-27T08:11:29;12.36;82.14
70534;SHT31;58088;51.186;17.130;2022-09-27T08:13:55;12.42;82.21
70534;SHT31;58088;51.186;17.130;2022-09-27T08:16:26;12.46;82.23
70534;SHT31;58088;51.186;17.130;2022-09-27T08:19:11;12.52;82.21
70534;SHT31;58088;51.186;17.130;2022-09-27T08:21:43;12.51;82.01
70534;SHT31;58088;51.186;17.130;2022-09-27T08:24:21;12.53;82.00
70534;SHT31;58088;51.186;17.130;2022-09-27T08:27:10;12.56;82.04
70534;SHT31;58088;51.186;17.130;2022-09-27T08:29:56;12.60;82.02
70534;SHT31;58088;51.186;17.130;2022-09-27T08:32:22;12.64;82.00
70534;SHT31;58088;51.186;17.130;2022-09-27T08:34:49;12.69;82.00
70534;SHT31;58088;51.186;17.130;2022-09-27T08:37:16;12.70;81.92
70534;SHT31;58088;51.186;17.130;2022-09-27T08:39:42;12.71;81.85
70534;SHT31;58088;51.186;17.130;2022-09-27T08:42:18;12.72;81.89
70534;SHT31;58088;51.186;17.130;2022-09-27T08:45:40;12.78;82.03
70534;SHT31;58088;51.186;17.130;2022-09-27T08:48:39;12.79;81.96
70534;SHT31;58088;51.186;17.130;2022-09-27T08:51:10;12.81;81.96
70534;SHT31;58088;51.186;17.130;2022-09-27T08:53:42;12.83;81.90
70534;SHT31;58088;51.186;17.130;2022-09-27T08:56:22;12.84;81.94
70534;SHT31;58088;51.186;17.130;2022-09-27T08:58:56;12.82;81.90
70534;SHT31;58088;51.186;17.130;2022-09-27T09:01:33;12.82;81.91
70534;SHT31;58088;51.186;17.130;2022-09-27T09:04:14;12.84;82.02
70534;SHT31;58088;51.186;17.130;2022-09-27T09:07:01;12.87;82.05
70534;SHT31;58088;51.186;17.130;2022-09-27T09:10:02;12.91;82.00
70534;SHT31;58088;51.186;17.130;2022-09-27T09:31:52;13.35;81.80
70534;SHT31;58088;51.186;17.130;2022-09-27T09:35:17;13.41;81.80
70534;SHT31;58088;51.186;17.130;2022-09-27T09:37:57;13.42;81.77
70534;SHT31;58088;51.186;17.130;2022-09-27T09:40:34;13.45;81.69
70534;SHT31;58088;51.186;17.130;2022-09-27T09:43:20;13.51;81.68
70534;SHT31;58088;51.186;17.130;2022-09-27T09:45:59;13.58;81.69
70534;SHT31;58088;51.186;17.130;2022-09-27T09:48:56;13.65;81.61
70534;SHT31;58088;51.186;17.130;2022-09-27T09:51:47;13.74;81.45
70534;SHT31;58088;51.186;17.130;2022-09-27T09:54:36;13.84;81.47
70534;SHT31;58088;51.186;17.130;2022-09-27T09:59:59;14.09;81.19
70534;SHT31;58088;51.186;17.130;2022-09-27T10:02:42;14.16;80.99
70534;SHT31;58088;51.186;17.130;2022-09-27T10:05:14;14.23;80.99
70534;SHT31;58088;51.186;17.130;2022-09-27T10:07:45;14.32;80.90
70534;SHT31;58088;51.186;17.130;2022-09-27T10:10:15;14.41;80.75
70534;SHT31;58088;51.186;17.130;2022-09-27T10:13:13;14.48;80.50
70534;SHT31;58088;51.186;17.130;2022-09-27T10:15:44;14.51;80.32
70534;SHT31;58088;51.186;17.130;2022-09-27T10:18:25;14.55;80.22
70534;SHT31;58088;51.186;17.130;2022-09-27T10:20:57;14.60;80.05
70534;SHT31;58088;51.186;17.130;2022-09-27T10:23:28;14.64;79.87
70534;SHT31;58088;51.186;17.130;2022-09-27T10:26:28;14.66;79.76
70534;SHT31;58088;51.186;17.130;2022-09-27T10:28:55;14.66;79.62
70534;SHT31;58088;51.186;17.130;2022-09-27T10:31:32;14.66;79.57
70534;SHT31;58088;51.186;17.130;2022-09-27T10:34:17;14.69;79.58
70534;SHT31;58088;51.186;17.130;2022-09-27T10:37:02;14.70;79.58
70534;SHT31;58088;51.186;17.130;2022-09-27T10:39:50;14.77;79.59
70534;SHT31;58088;51.186;17.130;2022-09-27T10:42:22;14.85;79.75
70534;SHT31;58088;51.186;17.130;2022-09-27T10:48:04;14.90;79.60
70534;SHT31;58088;51.186;17.130;2022-09-27T10:50:38;14.89;79.63
70534;SHT31;58088;51.186;17.130;2022-09-27T10:53:23;14.91;79.50
70534;SHT31;58088;51.186;17.130;2022-09-27T10:56:00;14.95;79.69
70534;SHT31;58088;51.186;17.130;2022-09-27T10:58:28;14.99;79.75
70534;SHT31;58088;51.186;17.130;2022-09-27T11:01:04;14.99;79.62
70534;SHT31;58088;51.186;17.130;2022-09-27T11:03:50;14.98;79.61
70534;SHT31;58088;51.186;17.130;2022-09-27T11:08:48;14.98;79.65
70534;SHT31;58088;51.186;17.130;2022-09-27T11:11:18;14.98;79.66
70534;SHT31;58088;51.186;17.130;2022-09-27T11:25:49;14.79;79.51
70534;SHT31;58088;51.186;17.130;2022-09-27T11:32:07;14.81;79.82
70534;SHT31;58088;51.186;17.130;2022-09-27T11:46:33;14.93;80.09
70534;SHT31;58088;51.186;17.130;2022-09-27T11:49:14;14.95;80.11
70534;SHT31;58088;51.186;17.130;2022-09-27T11:57:35;14.98;79.97
70534;SHT31;58088;51.186;17.130;2022-09-27T12:03:14;15.12;80.06
70534;SHT31;58088;51.186;17.130;2022-09-27T12:08:51;15.25;79.96
70534;SHT31;58088;51.186;17.130;2022-09-27T12:11:42;15.31;79.72
70534;SHT31;58088;51.186;17.130;2022-09-27T12:17:01;15.37;79.45
70534;SHT31;58088;51.186;17.130;2022-09-27T12:19:33;15.42;79.40
70534;SHT31;58088;51.186;17.130;2022-09-27T12:22:19;15.45;79.15
70534;SHT31;58088;51.186;17.130;2022-09-27T12:24:59;15.45;78.82
70534;SHT31;58088;51.186;17.130;2022-09-27T12:27:52;15.50;78.62
70534;SHT31;58088;51.186;17.130;2022-09-27T12:30:27;15.53;78.50
70534;SHT31;58088;51.186;17.130;2022-09-27T12:33:06;15.53;78.57
70534;SHT31;58088;51.186;17.130;2022-09-27T12:35:54;15.53;78.45
70534;SHT31;58088;51.186;17.130;2022-09-27T12:41:47;15.55;78.34
70534;SHT31;58088;51.186;17.130;2022-09-27T12:44:38;15.55;78.07
70534;SHT31;58088;51.186;17.130;2022-09-27T12:47:13;15.53;78.07
70534;SHT31;58088;51.186;17.130;2022-09-27T12:52:40;15.47;77.94
70534;SHT31;58088;51.186;17.130;2022-09-27T12:55:28;15.51;77.97
70534;SHT31;58088;51.186;17.130;2022-09-27T12:58:51;15.50;78.08
70534;SHT31;58088;51.186;17.130;2022-09-27T13:13:03;15.33;78.43
70534;SHT31;58088;51.186;17.130;2022-09-27T13:15:34;15.32;78.42
70534;SHT31;58088;51.186;17.130;2022-09-27T13:29:48;15.26;78.83
70534;SHT31;58088;51.186;17.130;2022-09-27T13:32:16;15.25;79.01
70534;SHT31;58088;51.186;17.130;2022-09-27T13:35:19;15.23;79.01
70534;SHT31;58088;51.186;17.130;2022-09-27T13:38:02;15.22;79.11
70534;SHT31;58088;51.186;17.130;2022-09-27T13:40:39;15.23;79.12
70534;SHT31;58088;51.186;17.130;2022-09-27T13:46:32;15.25;79.19
70534;SHT31;58088;51.186;17.130;2022-09-27T13:49:02;15.25;79.32
70534;SHT31;58088;51.186;17.130;2022-09-27T13:52:44;15.25;79.26
70534;SHT31;58088;51.186;17.130;2022-09-27T13:58:31;15.25;79.33
70534;SHT31;58088;51.186;17.130;2022-09-27T14:01:44;15.25;79.29
70534;SHT31;58088;51.186;17.130;2022-09-27T14:04:29;15.25;79.33
70534;SHT31;58088;51.186;17.130;2022-09-27T14:07:07;15.34;79.32
70534;SHT31;58088;51.186;17.130;2022-09-27T14:09:40;15.37;79.24
70534;SHT31;58088;51.186;17.130;2022-09-27T14:12:17;15.40;79.22
70534;SHT31;58088;51.186;17.130;2022-09-27T14:14:50;15.42;79.18
70534;SHT31;58088;51.186;17.130;2022-09-27T14:17:20;15.44;79.12
70534;SHT31;58088;51.186;17.130;2022-09-27T14:19:47;15.48;79.12
70534;SHT31;58088;51.186;17.130;2022-09-27T14:22:58;15.49;78.82
70534;SHT31;58088;51.186;17.130;2022-09-27T14:25:31;15.49;78.85
70534;SHT31;58088;51.186;17.130;2022-09-27T14:27:57;15.52;78.90
70534;SHT31;58088;51.186;17.130;2022-09-27T14:30:32;15.56;78.89
70534;SHT31;58088;51.186;17.130;2022-09-27T14:33:28;15.60;78.88
70534;SHT31;58088;51.186;17.130;2022-09-27T14:36:13;15.64;78.78
70534;SHT31;58088;51.186;17.130;2022-09-27T14:39:27;15.68;78.63
70534;SHT31;58088;51.186;17.130;2022-09-27T14:42:16;15.63;78.49
70534;SHT31;58088;51.186;17.130;2022-09-27T14:44:46;15.63;78.48
70534;SHT31;58088;51.186;17.130;2022-09-27T14:49:50;15.68;78.48
70534;SHT31;58088;51.186;17.130;2022-09-27T14:52:22;15.69;78.48
70534;SHT31;58088;51.186;17.130;2022-09-27T14:55:00;15.70;78.43
70534;SHT31;58088;51.186;17.130;2022-09-27T14:57:32;15.69;78.39
70534;SHT31;58088;51.186;17.130;2022-09-27T15:00:00;15.68;78.48
70534;SHT31;58088;51.186;17.130;2022-09-27T15:02:41;15.69;78.46
70534;SHT31;58088;51.186;17.130;2022-09-27T15:05:13;15.67;78.52
70534;SHT31;58088;51.186;17.130;2022-09-27T15:07:46;15.69;78.58
70534;SHT31;58088;51.186;17.130;2022-09-27T15:10:23;15.69;78.60
70534;SHT31;58088;51.186;17.130;2022-09-27T15:12:55;15.68;78.58
70534;SHT31;58088;51.186;17.130;2022-09-27T15:15:27;15.66;78.50
70534;SHT31;58088;51.186;17.130;2022-09-27T15:21:09;15.65;78.48
70534;SHT31;58088;51.186;17.130;2022-09-27T15:23:55;15.63;78.43
70534;SHT31;58088;51.186;17.130;2022-09-27T15:26:34;15.61;78.49
70534;SHT31;58088;51.186;17.130;2022-09-27T15:29:16;15.60;78.50
70534;SHT31;58088;51.186;17.130;2022-09-27T15:31:57;15.60;78.50
70534;SHT31;58088;51.186;17.130;2022-09-27T15:34:32;15.59;78.51
70534;SHT31;58088;51.186;17.130;2022-09-27T15:37:00;15.58;78.53
70534;SHT31;58088;51.186;17.130;2022-09-27T15:39:31;15.56;78.59
70534;SHT31;58088;51.186;17.130;2022-09-27T15:42:07;15.56;78.59
70534;SHT31;58088;51.186;17.130;2022-09-27T15:49:57;15.45;78.58
70534;SHT31;58088;51.186;17.130;2022-09-27T15:52:40;15.44;78.60
70534;SHT31;58088;51.186;17.130;2022-09-27T15:55:18;15.41;78.59
70534;SHT31;58088;51.186;17.130;2022-09-27T15:57:53;15.38;78.60
70534;SHT31;58088;51.186;17.130;2022-09-27T16:00:24;15.35;78.64
70534;SHT31;58088;51.186;17.130;2022-09-27T16:02:51;15.35;78.64
70534;SHT31;58088;51.186;17.130;2022-09-27T16:05:18;15.34;78.65
70534;SHT31;58088;51.186;17.130;2022-09-27T16:07:52;15.33;78.66
70534;SHT31;58088;51.186;17.130;2022-09-27T16:10:19;15.33;78.70
70534;SHT31;58088;51.186;17.130;2022-09-27T16:12:57;15.33;78.77
70534;SHT31;58088;51.186;17.130;2022-09-27T16:15:25;15.32;78.76
70534;SHT31;58088;51.186;17.130;2022-09-27T16:17:51;15.30;78.81
70534;SHT31;58088;51.186;17.130;2022-09-27T16:20:19;15.30;78.88
70534;SHT31;58088;51.186;17.130;2022-09-27T16:22:50;15.33;78.91
70534;SHT31;58088;51.186;17.130;2022-09-27T16:25:17;15.36;78.94
70534;SHT31;58088;51.186;17.130;2022-09-27T16:27:45;15.41;78.90
70534;SHT31;58088;51.186;17.130;2022-09-27T16:30:13;15.39;78.86
70534;SHT31;58088;51.186;17.130;2022-09-27T16:32:42;15.31;78.96
70534;SHT31;58088;51.186;17.130;2022-09-27T16:35:11;15.21;79.08
70534;SHT31;58088;51.186;17.130;2022-09-27T16:37:39;15.01;77.93
70534;SHT31;58088;51.186;17.130;2022-09-27T16:40:06;14.75;76.74
70534;SHT31;58088;51.186;17.130;2022-09-27T16:42:34;14.56;75.96
70534;SHT31;58088;51.186;17.130;2022-09-27T16:45:02;14.38;75.35
70534;SHT31;58088;51.186;17.130;2022-09-27T16:47:32;14.23;75.18
70534;SHT31;58088;51.186;17.130;2022-09-27T16:49:59;14.09;75.04
70534;SHT31;58088;51.186;17.130;2022-09-27T16:52:45;13.94;75.03
70534;SHT31;58088;51.186;17.130;2022-09-27T16:55:15;13.85;75.24
70534;SHT31;58088;51.186;17.130;2022-09-27T16:57:45;13.75;75.32
70534;SHT31;58088;51.186;17.130;2022-09-27T17:00:13;13.69;75.44
70534;SHT31;58088;51.186;17.130;2022-09-27T17:02:40;13.57;75.21
70534;SHT31;58088;51.186;17.130;2022-09-27T17:05:08;13.46;75.20
70534;SHT31;58088;51.186;17.130;2022-09-27T17:07:35;13.36;75.21
70534;SHT31;58088;51.186;17.130;2022-09-27T17:10:01;13.23;75.21
70534;SHT31;58088;51.186;17.130;2022-09-27T17:12:27;13.09;75.36
70534;SHT31;58088;51.186;17.130;2022-09-27T17:14:56;12.97;75.57
70534;SHT31;58088;51.186;17.130;2022-09-27T17:17:22;12.83;75.70
70534;SHT31;58088;51.186;17.130;2022-09-27T17:19:48;12.71;75.93
70534;SHT31;58088;51.186;17.130;2022-09-27T17:22:14;12.63;76.27
70534;SHT31;58088;51.186;17.130;2022-09-27T17:24:41;12.52;76.57
70534;SHT31;58088;51.186;17.130;2022-09-27T17:27:08;12.48;76.85
70534;SHT31;58088;51.186;17.130;2022-09-27T17:29:35;12.44;77.18
70534;SHT31;58088;51.186;17.130;2022-09-27T17:32:03;12.46;77.35
70534;SHT31;58088;51.186;17.130;2022-09-27T17:34:34;12.47;77.43
70534;SHT31;58088;51.186;17.130;2022-09-27T17:37:01;12.43;77.51
70534;SHT31;58088;51.186;17.130;2022-09-27T17:39:47;12.44;77.64
70534;SHT31;58088;51.186;17.130;2022-09-27T17:42:13;12.44;77.70
70534;SHT31;58088;51.186;17.130;2022-09-27T17:44:39;12.44;77.71
70534;SHT31;58088;51.186;17.130;2022-09-27T17:47:06;12.40;77.86
70534;SHT31;58088;51.186;17.130;2022-09-27T17:49:51;12.38;78.00
70534;SHT31;58088;51.186;17.130;2022-09-27T17:52:35;12.37;78.10
70534;SHT31;58088;51.186;17.130;2022-09-27T17:55:02;12.40;78.10
70534;SHT31;58088;51.186;17.130;2022-09-27T17:57:29;12.37;78.13
70534;SHT31;58088;51.186;17.130;2022-09-27T17:59:56;12.32;78.25
70534;SHT31;58088;51.186;17.130;2022-09-27T18:02:22;12.31;78.30
70534;SHT31;58088;51.186;17.130;2022-09-27T18:04:49;12.29;78.37
70534;SHT31;58088;51.186;17.130;2022-09-27T18:07:15;12.26;78.42
70534;SHT31;58088;51.186;17.130;2022-09-27T18:09:43;12.24;78.45
70534;SHT31;58088;51.186;17.130;2022-09-27T18:12:09;12.25;78.51
70534;SHT31;58088;51.186;17.130;2022-09-27T18:14:38;12.27;78.42
70534;SHT31;58088;51.186;17.130;2022-09-27T18:17:04;12.30;78.32
70534;SHT31;58088;51.186;17.130;2022-09-27T18:19:30;12.28;78.18
70534;SHT31;58088;51.186;17.130;2022-09-27T18:21:57;12.27;78.14
70534;SHT31;58088;51.186;17.130;2022-09-27T18:24:25;12.24;78.10
70534;SHT31;58088;51.186;17.130;2022-09-27T18:26:52;12.24;78.12
70534;SHT31;58088;51.186;17.130;2022-09-27T18:29:20;12.26;77.97
70534;SHT31;58088;51.186;17.130;2022-09-27T18:31:46;12.30;77.82
70534;SHT31;58088;51.186;17.130;2022-09-27T18:34:13;12.31;77.76
70534;SHT31;58088;51.186;17.130;2022-09-27T18:36:42;12.26;77.69